Time;durP1;ratioP1;P1;durP2;ratioP2;P2;SDS_P1;SDS_P2;PMS_P1;PMS_P2;Temp;Humidity;BMP_temperature;BMP_pressure;BME280_temperature;BME280_humidity;BME280_pressure;Samples;Min_cycle;Max_cycle;Signal;HPM_P1;HPM_P2
2023/06/17 00:00:14;;;;;;;10.38;5.97;;;12.60;99.90;;;;;;5070793;28;20402;-83
2023/06/17 00:02:40;;;;;;;8.43;5.72;;;12.50;99.90;;;;;;5067663;28;20044;-83
2023/06/17 00:05:05;;;;;;;8.50;5.60;;;12.30;99.90;;;;;;5086570;28;20406;-83
2023/06/17 00:07:31;;;;;;;8.98;6.55;;;12.30;99.90;;;;;;5069264;28;20093;-83
2023/06/17 00:09:56;;;;;;;7.35;5.70;;;12.40;99.90;;;;;;5055118;28;20048;-83
2023/06/17 00:12:24;;;;;;;15.35;7.15;;;12.40;99.90;;;;;;5068924;28;20040;-83
2023/06/17 00:14:50;;;;;;;7.18;6.50;;;12.40;99.90;;;;;;5065517;28;20067;-83
2023/06/17 00:17:16;;;;;;;12.38;6.05;;;12.30;99.90;;;;;;5067517;28;20057;-83
2023/06/17 00:19:42;;;;;;;5.95;5.20;;;12.20;99.90;;;;;;5070092;28;20483;-82
2023/06/17 00:22:08;;;;;;;8.70;5.28;;;12.00;99.90;;;;;;5103253;28;20132;-83
2023/06/17 00:24:35;;;;;;;7.47;6.25;;;12.00;99.90;;;;;;5069351;28;20052;-83
2023/06/17 00:27:01;;;;;;;9.15;6.68;;;12.00;99.90;;;;;;5068407;28;20041;-83
2023/06/17 00:29:26;;;;;;;8.23;6.93;;;12.10;99.90;;;;;;5069342;28;20109;-83
2023/06/17 00:31:52;;;;;;;8.00;7.20;;;12.20;99.90;;;;;;5068146;28;20032;-83
2023/06/17 00:34:17;;;;;;;8.82;6.18;;;12.30;99.90;;;;;;5063500;28;20058;-83
2023/06/17 00:36:43;;;;;;;8.75;6.85;;;12.40;99.90;;;;;;5067084;28;20107;-83
2023/06/17 00:39:08;;;;;;;8.60;7.30;;;12.40;99.90;;;;;;5053967;28;20032;-83
2023/06/17 00:41:34;;;;;;;7.93;7.10;;;12.40;99.90;;;;;;5068518;28;20040;-84
2023/06/17 00:44:00;;;;;;;7.50;6.90;;;12.40;99.90;;;;;;5071552;28;20036;-83
2023/06/17 00:46:40;;;;;;;7.13;6.18;;;12.30;99.90;;;;;;5072469;28;20036;-82
2023/06/17 00:49:08;;;;;;;10.18;7.85;;;12.20;99.90;;;;;;5072765;28;20100;-83
2023/06/17 00:51:36;;;;;;;9.05;8.07;;;12.00;99.90;;;;;;5076929;28;20104;-82
2023/06/17 00:54:02;;;;;;;11.73;8.18;;;11.90;99.90;;;;;;5075908;28;20044;-83
2023/06/17 00:56:31;;;;;;;16.77;8.55;;;11.80;99.90;;;;;;5074937;28;20395;-82
2023/06/17 00:58:56;;;;;;;14.88;9.43;;;11.90;99.90;;;;;;5105694;28;20025;-83
2023/06/17 01:01:25;;;;;;;8.50;7.55;;;12.00;99.90;;;;;;5073257;28;20058;-83
2023/06/17 01:03:55;;;;;;;12.65;9.30;;;12.10;99.90;;;;;;5075777;28;20556;-83
2023/06/17 01:06:59;;;;;;;11.98;10.70;;;12.30;99.90;;;;;;5076176;28;20036;-83
2023/06/17 01:09:32;;;;;;;14.50;13.10;;;12.50;99.90;;;;;;5076412;28;20074;-83
2023/06/17 01:11:58;;;;;;;14.73;12.27;;;12.70;99.90;;;;;;5076283;28;20037;-83
2023/06/17 01:14:26;;;;;;;12.80;11.60;;;12.90;99.90;;;;;;5074606;28;20078;-84
2023/06/17 01:16:54;;;;;;;12.25;10.95;;;13.00;99.90;;;;;;5089557;28;20037;-83
2023/06/17 01:19:29;;;;;;;13.52;12.27;;;13.20;99.90;;;;;;5076370;28;20494;-83
2023/06/17 01:21:56;;;;;;;14.70;13.23;;;13.40;99.90;;;;;;5103706;28;20033;-83
2023/06/17 01:24:29;;;;;;;14.27;12.82;;;13.50;99.90;;;;;;5076460;28;20043;-82
2023/06/17 01:26:57;;;;;;;16.60;13.55;;;13.60;99.90;;;;;;5105155;28;20036;-83
2023/06/17 01:29:23;;;;;;;20.27;13.82;;;13.80;99.90;;;;;;5063696;28;20057;-83
2023/06/17 01:31:50;;;;;;;16.27;13.65;;;13.90;99.90;;;;;;5059641;28;20067;-83
2023/06/17 01:34:22;;;;;;;13.25;12.00;;;13.90;99.90;;;;;;5076108;28;20540;-81
2023/06/17 01:36:52;;;;;;;15.15;12.95;;;14.00;99.90;;;;;;5075517;28;20040;-83
2023/06/17 01:39:22;;;;;;;16.50;13.40;;;14.10;99.90;;;;;;5076895;28;20758;-83
2023/06/17 01:41:52;;;;;;;15.13;13.63;;;14.10;99.90;;;;;;5074215;28;20036;-83
2023/06/17 01:44:18;;;;;;;19.45;13.00;;;14.30;99.90;;;;;;5072056;28;20041;-83
2023/06/17 01:46:45;;;;;;;16.00;12.82;;;14.30;99.90;;;;;;5077160;28;20036;-83
2023/06/17 01:49:11;;;;;;;15.15;13.60;;;14.40;99.90;;;;;;5073713;28;20049;-83
2023/06/17 01:51:36;;;;;;;14.48;13.07;;;14.50;99.90;;;;;;5077265;28;20047;-84
2023/06/17 01:54:02;;;;;;;17.30;13.27;;;14.50;99.90;;;;;;5074424;28;20043;-84
2023/06/17 01:56:28;;;;;;;18.23;13.43;;;14.50;99.90;;;;;;5076664;28;20400;-84
2023/06/17 01:58:53;;;;;;;16.60;12.70;;;14.60;99.90;;;;;;5076546;28;20032;-83
2023/06/17 02:01:19;;;;;;;13.68;12.18;;;14.60;99.90;;;;;;5092172;28;20032;-84
2023/06/17 02:03:45;;;;;;;16.58;12.10;;;14.70;99.90;;;;;;5076897;28;20115;-83
2023/06/17 02:06:10;;;;;;;14.40;12.88;;;14.70;99.90;;;;;;5076777;28;20477;-83
2023/06/17 02:08:37;;;;;;;14.80;13.10;;;14.80;99.90;;;;;;5076203;28;20939;-83
2023/06/17 02:11:03;;;;;;;17.38;14.55;;;14.80;99.90;;;;;;5074298;28;20094;-83
2023/06/17 02:13:28;;;;;;;18.73;16.27;;;14.80;99.90;;;;;;5071180;28;20671;-84
2023/06/17 02:15:54;;;;;;;17.55;15.77;;;14.90;99.90;;;;;;5073015;28;20043;-83
2023/06/17 02:18:19;;;;;;;19.60;14.95;;;14.90;99.90;;;;;;5075119;28;20123;-83
2023/06/17 02:20:46;;;;;;;22.13;15.68;;;15.00;99.90;;;;;;5078034;28;20487;-82
2023/06/17 02:23:11;;;;;;;17.80;15.93;;;15.00;99.90;;;;;;5076831;28;20035;-83
2023/06/17 02:25:39;;;;;;;21.80;16.90;;;15.10;99.90;;;;;;5075814;28;20045;-83
2023/06/17 02:28:06;;;;;;;21.27;17.35;;;15.10;99.90;;;;;;5073532;28;20073;-82
2023/06/17 02:30:31;;;;;;;23.75;19.15;;;15.10;99.90;;;;;;5073192;28;20132;-83
2023/06/17 02:32:58;;;;;;;24.60;19.95;;;15.20;99.90;;;;;;5076075;28;20085;-83
2023/06/17 02:35:23;;;;;;;20.15;18.08;;;15.10;99.90;;;;;;5059447;28;20056;-83
2023/06/17 02:37:49;;;;;;;21.20;17.52;;;15.20;99.90;;;;;;5076692;28;20040;-82
2023/06/17 02:40:15;;;;;;;19.10;17.10;;;15.20;99.90;;;;;;5068989;28;20040;-84
2023/06/17 02:42:40;;;;;;;21.83;18.02;;;15.30;99.90;;;;;;5076233;28;20039;-83
2023/06/17 02:45:11;;;;;;;21.02;17.90;;;15.20;99.90;;;;;;5071685;28;20033;-84
2023/06/17 02:47:37;;;;;;;22.73;18.58;;;15.20;99.90;;;;;;5107373;28;20041;-83
2023/06/17 02:50:05;;;;;;;20.40;17.48;;;15.30;99.90;;;;;;5075313;28;20048;-84
2023/06/17 02:52:31;;;;;;;24.52;18.77;;;15.30;99.90;;;;;;5084996;28;20044;-83
2023/06/17 02:54:57;;;;;;;23.50;17.77;;;15.30;99.90;;;;;;5072911;28;20048;-83
2023/06/17 02:57:22;;;;;;;22.73;18.67;;;15.30;99.90;;;;;;5062480;28;20136;-83
2023/06/17 02:59:48;;;;;;;27.10;19.17;;;15.50;99.90;;;;;;5072807;28;20048;-84
2023/06/17 03:02:13;;;;;;;26.20;18.45;;;15.30;99.90;;;;;;5071234;28;20111;-83
2023/06/17 03:04:39;;;;;;;25.10;18.45;;;15.30;99.90;;;;;;5057454;28;20046;-83
2023/06/17 03:07:06;;;;;;;19.75;17.75;;;15.30;99.90;;;;;;5071668;28;20044;-84
2023/06/17 03:09:32;;;;;;;21.00;17.40;;;15.30;99.90;;;;;;5073244;28;20040;-84
2023/06/17 03:12:02;;;;;;;21.83;16.48;;;15.30;99.90;;;;;;5074655;28;20051;-83
2023/06/17 03:14:29;;;;;;;23.60;18.45;;;15.30;99.90;;;;;;5073908;28;20056;-83
2023/06/17 03:16:58;;;;;;;19.92;17.08;;;15.30;99.90;;;;;;5074444;28;20080;-83
2023/06/17 03:19:25;;;;;;;22.35;17.50;;;15.30;99.90;;;;;;5107135;28;20423;-83
2023/06/17 03:21:51;;;;;;;19.00;17.00;;;15.40;99.90;;;;;;5105912;28;20040;-83
2023/06/17 03:24:17;;;;;;;19.98;17.02;;;15.30;99.90;;;;;;5070758;28;20036;-84
2023/06/17 03:26:44;;;;;;;20.35;18.05;;;15.30;99.90;;;;;;5076082;28;20041;-84
2023/06/17 03:29:10;;;;;;;21.98;19.55;;;15.30;99.90;;;;;;5071983;28;21603;-84
2023/06/17 03:31:36;;;;;;;19.67;17.23;;;15.30;99.90;;;;;;5072723;28;20047;-83
2023/06/17 03:34:02;;;;;;;23.50;17.13;;;15.30;99.90;;;;;;5074487;28;20058;-83
2023/06/17 03:36:30;;;;;;;20.42;18.35;;;15.30;99.90;;;;;;5071806;28;20040;-84
2023/06/17 03:38:57;;;;;;;19.52;17.52;;;15.30;99.90;;;;;;5058105;28;20040;-84
2023/06/17 03:41:26;;;;;;;24.25;17.77;;;15.30;99.90;;;;;;5071097;28;20036;-84
2023/06/17 03:43:52;;;;;;;21.42;19.08;;;15.30;99.90;;;;;;5073232;28;20040;-84
2023/06/17 03:46:18;;;;;;;21.88;17.83;;;15.30;99.90;;;;;;5058793;28;20074;-84
2023/06/17 03:48:44;;;;;;;28.02;19.35;;;15.30;99.90;;;;;;5069336;28;20048;-84
2023/06/17 03:51:10;;;;;;;21.00;18.77;;;15.30;99.90;;;;;;5072315;28;20044;-84
2023/06/17 03:53:36;;;;;;;21.42;17.30;;;15.30;99.90;;;;;;5071124;28;20044;-84
2023/06/17 03:56:02;;;;;;;24.70;17.08;;;15.30;99.90;;;;;;5072998;28;20040;-84
2023/06/17 03:58:28;;;;;;;24.08;17.92;;;15.30;99.90;;;;;;5072319;28;20040;-84
2023/06/17 04:00:53;;;;;;;19.45;17.02;;;15.30;99.90;;;;;;5073156;28;20064;-84
2023/06/17 04:03:19;;;;;;;24.35;18.58;;;15.30;99.90;;;;;;5071688;28;20033;-84
2023/06/17 04:05:45;;;;;;;21.90;17.85;;;15.30;99.90;;;;;;5074115;28;20086;-84
2023/06/17 04:08:11;;;;;;;25.13;17.17;;;15.30;99.90;;;;;;5069734;28;20044;-84
2023/06/17 04:10:37;;;;;;;28.90;16.90;;;15.40;99.90;;;;;;5072895;28;20044;-83
2023/06/17 04:13:03;;;;;;;26.33;17.73;;;15.30;99.90;;;;;;5074254;28;20043;-83
2023/06/17 04:15:28;;;;;;;19.90;16.55;;;15.30;99.90;;;;;;5101909;28;20045;-83
2023/06/17 04:17:54;;;;;;;30.90;17.38;;;15.40;99.90;;;;;;5072200;28;20047;-83
2023/06/17 04:20:20;;;;;;;21.17;17.08;;;15.40;99.90;;;;;;5103870;28;20060;-83
2023/06/17 04:22:45;;;;;;;24.83;17.05;;;15.40;99.90;;;;;;5080038;28;20595;-84
2023/06/17 04:25:12;;;;;;;24.70;18.70;;;15.40;99.90;;;;;;5078231;28;20041;-84
2023/06/17 04:27:38;;;;;;;21.13;17.55;;;15.40;99.90;;;;;;5077618;28;20082;-83
2023/06/17 04:30:06;;;;;;;29.25;18.25;;;15.50;99.90;;;;;;5077578;28;20040;-84
2023/06/17 04:32:35;;;;;;;21.25;17.52;;;15.50;99.90;;;;;;5109594;28;20129;-84
2023/06/17 04:35:03;;;;;;;24.05;17.85;;;15.50;99.90;;;;;;5076092;28;20059;-84
2023/06/17 04:37:30;;;;;;;18.23;16.48;;;15.30;99.90;;;;;;5071749;28;20052;-84
2023/06/17 04:39:56;;;;;;;19.13;16.10;;;15.60;99.90;;;;;;5073419;28;20029;-85
2023/06/17 04:42:22;;;;;;;23.05;17.35;;;15.60;99.90;;;;;;5074463;28;20116;-84
2023/06/17 04:44:48;;;;;;;19.05;16.05;;;15.60;99.90;;;;;;5068898;28;20059;-85
2023/06/17 04:47:16;;;;;;;19.13;17.00;;;15.60;99.90;;;;;;5088276;28;20158;-84
2023/06/17 04:49:44;;;;;;;20.38;17.60;;;15.60;99.90;;;;;;5074697;28;20111;-84
2023/06/17 04:52:11;;;;;;;17.83;16.13;;;15.60;99.90;;;;;;5072653;28;20060;-84
2023/06/17 04:54:37;;;;;;;20.02;18.00;;;15.60;99.90;;;;;;5072006;28;20048;-84
2023/06/17 04:57:04;;;;;;;25.13;18.20;;;15.70;99.90;;;;;;5074984;28;20048;-83
2023/06/17 04:59:29;;;;;;;20.27;17.20;;;15.60;99.90;;;;;;5069975;28;20041;-85
2023/06/17 05:01:55;;;;;;;20.80;17.58;;;15.60;99.90;;;;;;5074070;28;20136;-84
2023/06/17 05:04:21;;;;;;;21.20;17.17;;;15.60;99.90;;;;;;5071815;28;20043;-84
2023/06/17 05:06:47;;;;;;;21.20;19.13;;;15.60;99.90;;;;;;5073183;28;20070;-84
2023/06/17 05:09:12;;;;;;;22.67;19.17;;;15.70;99.90;;;;;;5064334;28;20059;-84
2023/06/17 05:11:42;;;;;;;28.05;18.35;;;15.70;99.90;;;;;;5070674;28;20491;-84
2023/06/17 05:14:08;;;;;;;22.92;19.08;;;15.70;99.90;;;;;;5073940;28;20422;-84
2023/06/17 05:16:33;;;;;;;20.20;17.80;;;15.70;99.90;;;;;;5075164;28;20047;-84
2023/06/17 05:18:59;;;;;;;18.90;16.92;;;15.70;99.90;;;;;;5084682;28;20032;-84
2023/06/17 05:21:25;;;;;;;21.42;18.17;;;15.70;99.90;;;;;;5105703;28;20040;-84
2023/06/17 05:23:51;;;;;;;18.85;16.92;;;15.70;99.90;;;;;;5070719;28;20036;-84
2023/06/17 05:26:17;;;;;;;19.45;17.40;;;15.70;99.90;;;;;;5072611;28;20052;-84
2023/06/17 05:28:42;;;;;;;21.38;18.23;;;15.70;99.90;;;;;;5079119;28;20075;-84
2023/06/17 05:31:09;;;;;;;20.30;17.50;;;15.70;99.90;;;;;;5074674;28;20075;-84
2023/06/17 05:33:35;;;;;;;19.88;16.73;;;15.70;99.90;;;;;;5073050;28;20047;-84
2023/06/17 05:36:01;;;;;;;18.77;16.83;;;15.70;99.90;;;;;;5075533;28;20127;-84
2023/06/17 05:38:28;;;;;;;24.13;16.67;;;15.70;99.90;;;;;;5105917;27;20036;-83
2023/06/17 05:40:53;;;;;;;20.02;17.17;;;15.70;99.90;;;;;;5074674;28;20056;-83
2023/06/17 05:43:19;;;;;;;20.13;17.25;;;15.70;99.90;;;;;;5072492;28;20105;-83
2023/06/17 05:45:45;;;;;;;19.45;17.35;;;15.70;99.90;;;;;;5072424;28;20134;-84
2023/06/17 05:48:10;;;;;;;17.67;15.98;;;15.70;99.90;;;;;;5076213;28;20411;-83
2023/06/17 05:50:36;;;;;;;18.45;16.38;;;15.80;99.90;;;;;;5073225;28;20048;-84
2023/06/17 05:53:02;;;;;;;18.73;16.35;;;15.80;99.90;;;;;;5072205;28;20040;-82
2023/06/17 05:55:27;;;;;;;18.55;16.58;;;15.80;99.90;;;;;;5066780;28;20049;-82
2023/06/17 05:57:54;;;;;;;21.60;18.70;;;15.80;99.90;;;;;;5069678;28;20028;-83
2023/06/17 06:00:20;;;;;;;20.02;18.00;;;15.90;99.90;;;;;;5071779;28;20078;-82
2023/06/17 06:02:45;;;;;;;20.35;17.33;;;15.90;99.90;;;;;;5066911;28;20040;-83
2023/06/17 06:05:11;;;;;;;21.02;17.40;;;15.90;99.90;;;;;;5070173;28;20033;-82
2023/06/17 06:07:37;;;;;;;22.30;18.13;;;16.00;99.90;;;;;;5068255;28;20064;-83
2023/06/17 06:10:06;;;;;;;18.90;16.90;;;15.90;99.90;;;;;;5069939;28;20087;-83
2023/06/17 06:12:31;;;;;;;20.35;17.80;;;16.00;99.90;;;;;;5072408;28;20063;-83
2023/06/17 06:14:57;;;;;;;20.15;16.83;;;16.00;99.90;;;;;;5068664;28;20041;-84
2023/06/17 06:17:24;;;;;;;20.77;16.92;;;16.10;99.90;;;;;;5074027;28;20402;-81
2023/06/17 06:19:50;;;;;;;20.00;16.67;;;16.10;99.90;;;;;;5070393;28;21058;-80
2023/06/17 06:22:16;;;;;;;19.45;17.17;;;16.20;99.90;;;;;;5071087;28;20036;-81
2023/06/17 06:24:41;;;;;;;18.63;16.77;;;16.20;99.90;;;;;;5068167;28;20120;-82
2023/06/17 06:27:07;;;;;;;23.17;17.70;;;16.20;99.90;;;;;;5072890;28;20036;-80
2023/06/17 06:29:32;;;;;;;18.48;16.70;;;16.20;99.90;;;;;;5067698;28;20045;-80
2023/06/17 06:31:58;;;;;;;22.70;18.48;;;16.30;99.90;;;;;;5072411;28;20060;-82
2023/06/17 06:34:24;;;;;;;21.50;17.35;;;16.30;99.90;;;;;;5073832;28;20506;-82
2023/06/17 06:36:49;;;;;;;19.92;17.30;;;16.30;99.90;;;;;;5073793;28;20143;-82
2023/06/17 06:39:16;;;;;;;22.02;16.63;;;16.40;99.90;;;;;;5073209;28;20120;-83
2023/06/17 06:41:42;;;;;;;20.15;16.50;;;16.50;99.90;;;;;;5077664;28;20036;-81
2023/06/17 06:44:07;;;;;;;20.83;17.33;;;16.50;99.90;;;;;;5071043;28;20093;-83
2023/06/17 06:46:33;;;;;;;18.23;16.17;;;16.50;99.90;;;;;;5051214;28;20094;-82
2023/06/17 06:48:59;;;;;;;21.55;16.90;;;16.60;99.90;;;;;;5071375;28;20120;-84
2023/06/17 06:51:25;;;;;;;23.02;17.83;;;16.70;99.90;;;;;;5070142;28;20043;-84
2023/06/17 06:53:51;;;;;;;17.83;16.13;;;16.70;99.90;;;;;;5073037;28;20032;-83
2023/06/17 06:56:17;;;;;;;19.27;16.73;;;16.80;99.90;;;;;;5075582;28;20045;-83
2023/06/17 06:58:43;;;;;;;16.73;14.82;;;16.80;99.90;;;;;;5073461;28;20078;-83
2023/06/17 07:01:08;;;;;;;21.75;16.13;;;16.90;99.90;;;;;;5071619;28;20036;-83
2023/06/17 07:03:34;;;;;;;20.02;15.20;;;17.00;99.90;;;;;;5072680;28;20040;-83
2023/06/17 07:06:00;;;;;;;17.70;14.60;;;17.00;99.90;;;;;;5073756;28;20048;-83
2023/06/17 07:08:25;;;;;;;19.88;17.25;;;17.20;99.90;;;;;;5105253;28;20471;-83
2023/06/17 07:10:51;;;;;;;20.75;16.58;;;17.30;99.90;;;;;;5073673;28;20509;-83
2023/06/17 07:13:17;;;;;;;16.95;15.18;;;17.40;99.90;;;;;;5072478;28;20040;-82
2023/06/17 07:15:44;;;;;;;16.80;14.85;;;17.50;99.90;;;;;;5069634;28;20059;-82
2023/06/17 07:18:10;;;;;;;16.67;15.10;;;17.60;99.90;;;;;;5104923;28;20040;-83
2023/06/17 07:20:36;;;;;;;16.88;15.13;;;17.80;99.90;;;;;;5071304;28;20167;-82
2023/06/17 07:23:02;;;;;;;17.70;14.38;;;18.00;99.90;;;;;;5070305;28;20090;-82
2023/06/17 07:25:27;;;;;;;20.17;14.75;;;18.10;99.90;;;;;;5069938;28;20036;-82
2023/06/17 07:27:56;;;;;;;21.48;14.73;;;18.20;99.90;;;;;;5070430;28;20108;-82
2023/06/17 07:30:22;;;;;;;16.48;15.00;;;18.30;99.90;;;;;;5071260;28;20029;-82
2023/06/17 07:32:48;;;;;;;15.95;14.45;;;18.40;99.90;;;;;;5073472;28;20035;-83
2023/06/17 07:35:14;;;;;;;16.77;14.95;;;18.60;99.90;;;;;;5070481;28;20044;-83
2023/06/17 07:37:39;;;;;;;17.77;14.70;;;18.60;99.90;;;;;;5065489;28;20072;-82
2023/06/17 07:40:06;;;;;;;19.92;13.98;;;18.60;99.90;;;;;;5074889;28;20037;-82
2023/06/17 07:42:32;;;;;;;16.85;14.55;;;18.80;99.90;;;;;;5071735;28;20090;-82
2023/06/17 07:44:57;;;;;;;18.35;14.85;;;18.80;99.90;;;;;;5069897;28;20346;-83
2023/06/17 07:47:23;;;;;;;18.75;13.98;;;18.80;99.90;;;;;;5071968;28;20036;-82
2023/06/17 07:49:49;;;;;;;20.90;14.38;;;18.90;99.90;;;;;;5072459;28;20045;-83
2023/06/17 07:52:14;;;;;;;16.23;13.63;;;19.00;99.90;;;;;;5073774;28;20053;-82
2023/06/17 07:54:41;;;;;;;18.45;13.02;;;19.20;99.90;;;;;;5073299;28;20490;-83
2023/06/17 07:57:06;;;;;;;14.55;12.48;;;19.30;99.90;;;;;;5069975;28;20048;-82
2023/06/17 07:59:32;;;;;;;16.77;12.57;;;19.50;99.90;;;;;;5077411;28;20051;-83
2023/06/17 08:01:58;;;;;;;14.00;12.52;;;19.70;99.90;;;;;;5076051;28;20040;-83
2023/06/17 08:04:25;;;;;;;13.55;12.07;;;20.20;99.90;;;;;;5078391;28;20044;-83
2023/06/17 08:06:51;;;;;;;18.40;13.18;;;20.60;99.90;;;;;;5076147;28;20066;-83
2023/06/17 08:09:16;;;;;;;14.65;13.05;;;21.00;99.90;;;;;;5072871;28;20254;-82
2023/06/17 08:11:42;;;;;;;21.23;14.20;;;21.30;99.90;;;;;;5071718;28;20088;-83
2023/06/17 08:14:07;;;;;;;15.70;11.45;;;21.20;99.90;;;;;;5076662;28;20052;-82
2023/06/17 08:16:33;;;;;;;14.30;11.52;;;21.10;99.90;;;;;;5078559;28;20048;-83
2023/06/17 08:18:58;;;;;;;15.23;10.88;;;21.30;99.90;;;;;;5077842;28;20130;-83
2023/06/17 08:21:24;;;;;;;15.88;11.63;;;21.30;99.90;;;;;;5078800;28;20119;-83
2023/06/17 08:23:50;;;;;;;12.05;10.77;;;21.60;99.90;;;;;;5078864;28;20130;-83
2023/06/17 08:26:16;;;;;;;13.50;10.02;;;21.90;99.90;;;;;;5077693;28;20032;-82
2023/06/17 08:28:41;;;;;;;17.35;11.07;;;22.30;99.90;;;;;;5076723;28;20102;-83
2023/06/17 08:31:07;;;;;;;11.55;10.32;;;22.50;99.90;;;;;;5077817;28;20118;-82
2023/06/17 08:33:32;;;;;;;11.75;8.82;;;22.60;99.90;;;;;;5093905;28;20037;-83
2023/06/17 08:35:58;;;;;;;12.30;9.27;;;22.70;99.90;;;;;;5079196;28;20040;-83
2023/06/17 08:38:23;;;;;;;10.05;8.82;;;22.70;99.90;;;;;;5078864;28;20059;-84
2023/06/17 08:40:49;;;;;;;12.85;9.52;;;22.90;99.90;;;;;;5079242;28;20041;-83
2023/06/17 08:43:19;;;;;;;12.88;10.25;;;23.30;99.90;;;;;;5076939;28;20068;-83
2023/06/17 08:45:49;;;;;;;13.43;11.32;;;23.40;99.90;;;;;;5077299;28;20055;-83
2023/06/17 08:48:15;;;;;;;11.77;9.38;;;23.10;99.90;;;;;;5078319;28;20044;-83
2023/06/17 08:50:41;;;;;;;13.85;9.30;;;23.10;99.90;;;;;;5078929;28;20040;-83
2023/06/17 08:53:07;;;;;;;10.27;9.23;;;23.20;99.90;;;;;;5076411;28;20090;-84
2023/06/17 08:55:33;;;;;;;13.43;9.05;;;23.40;99.90;;;;;;5063921;28;20044;-83
2023/06/17 08:58:00;;;;;;;10.20;7.82;;;23.60;99.90;;;;;;5081806;28;20040;-81
2023/06/17 09:00:25;;;;;;;13.55;7.95;;;23.80;99.90;;;;;;5110122;28;20039;-83
2023/06/17 09:02:54;;;;;;;12.05;9.60;;;24.10;99.90;;;;;;5079285;28;20234;-83
2023/06/17 09:05:19;;;;;;;11.05;9.93;;;24.10;99.90;;;;;;5078532;28;20063;-83
2023/06/17 09:07:45;;;;;;;9.63;8.48;;;23.90;99.90;;;;;;5080051;28;20492;-83
2023/06/17 09:10:15;;;;;;;11.50;9.20;;;23.70;99.90;;;;;;5077324;28;20036;-84
2023/06/17 09:12:41;;;;;;;10.15;8.35;;;23.80;99.90;;;;;;5089870;28;20044;-83
2023/06/17 09:15:14;;;;;;;11.50;8.15;;;23.90;99.90;;;;;;5061679;28;20045;-83
2023/06/17 09:17:42;;;;;;;13.73;8.60;;;24.10;99.90;;;;;;5076146;28;20033;-83
2023/06/17 09:20:10;;;;;;;13.88;8.63;;;24.30;99.90;;;;;;5095210;28;20044;-84
2023/06/17 09:22:39;;;;;;;14.65;9.07;;;24.50;99.90;;;;;;5079096;28;20036;-83
2023/06/17 09:25:08;;;;;;;9.70;8.70;;;24.50;99.90;;;;;;5072819;28;20041;-83
2023/06/17 09:27:34;;;;;;;10.85;8.15;;;24.30;99.90;;;;;;5067091;28;20051;-83
2023/06/17 09:30:09;;;;;;;11.65;7.80;;;24.30;99.90;;;;;;5071185;28;20041;-83
2023/06/17 09:32:42;;;;;;;11.20;7.93;;;24.40;99.90;;;;;;5068921;28;20036;-83
2023/06/17 09:35:15;;;;;;;11.20;7.60;;;24.60;99.90;;;;;;5067665;28;20040;-83
2023/06/17 09:37:49;;;;;;;11.63;8.85;;;24.90;99.90;;;;;;5073660;28;20088;-84
2023/06/17 09:40:15;;;;;;;9.93;8.70;;;24.90;99.90;;;;;;5068933;28;20507;-84
2023/06/17 09:42:46;;;;;;;16.48;8.38;;;24.90;99.90;;;;;;5074342;28;20074;-83
2023/06/17 09:45:18;;;;;;;9.23;8.15;;;24.70;99.90;;;;;;5070667;28;20048;-84
2023/06/17 09:47:51;;;;;;;13.35;8.02;;;24.70;99.90;;;;;;5068327;28;20049;-84
2023/06/17 09:50:20;;;;;;;10.45;7.30;;;24.60;99.90;;;;;;5070435;28;20037;-84
2023/06/17 09:52:48;;;;;;;10.23;7.28;;;24.70;99.90;;;;;;5065670;28;20437;-83
2023/06/17 09:55:14;;;;;;;11.20;6.97;;;25.00;99.90;;;;;;5069198;28;20041;-84
2023/06/17 09:57:43;;;;;;;11.02;7.75;;;25.40;99.90;;;;;;5064879;28;20048;-84
2023/06/17 10:00:14;;;;;;;11.18;6.88;;;25.80;99.90;;;;;;5070958;28;20041;-84
2023/06/17 10:02:40;;;;;;;9.07;7.70;;;25.70;99.90;;;;;;5065498;28;20048;-84
2023/06/17 10:05:10;;;;;;;9.57;6.53;;;25.40;99.90;;;;;;5066550;28;20094;-84
2023/06/17 10:07:38;;;;;;;11.57;7.10;;;25.50;99.90;;;;;;5080610;28;21639;-83
2023/06/17 10:10:04;;;;;;;8.27;7.15;;;25.60;99.90;;;;;;5066606;28;20040;-84
2023/06/17 10:12:33;;;;;;;8.70;7.10;;;25.50;99.90;;;;;;5062213;28;20455;-84
2023/06/17 10:15:00;;;;;;;8.82;6.30;;;25.40;99.90;;;;;;5062083;28;20047;-84
2023/06/17 10:17:27;;;;;;;9.60;6.90;;;25.40;99.90;;;;;;5063109;28;20128;-84
2023/06/17 10:19:53;;;;;;;9.18;7.55;;;25.60;99.90;;;;;;5062006;28;20045;-84
2023/06/17 10:22:21;;;;;;;10.85;6.65;;;25.80;99.90;;;;;;5065122;28;20036;-84
2023/06/17 10:24:48;;;;;;;8.82;6.50;;;25.90;99.90;;;;;;5065640;28;20068;-85
2023/06/17 10:27:13;;;;;;;13.45;6.13;;;25.90;99.90;;;;;;5066864;28;20056;-83
2023/06/17 10:29:45;;;;;;;9.32;7.40;;;26.20;99.90;;;;;;5070702;28;20690;-83
2023/06/17 10:32:26;;;;;;;11.63;6.95;;;26.50;99.90;;;;;;5066514;28;20441;-81
2023/06/17 10:35:10;;;;;;;12.38;6.25;;;26.70;99.90;;;;;;5064755;28;20167;-82
2023/06/17 10:37:47;;;;;;;9.63;6.95;;;26.90;99.90;;;;;;5069777;28;20055;-81
2023/06/17 10:40:20;;;;;;;8.40;5.93;;;26.60;99.90;;;;;;5067503;28;20047;-81
2023/06/17 10:43:13;;;;;;;16.52;9.00;;;26.70;99.90;;;;;;5065271;27;20121;-82
2023/06/17 10:45:57;;;;;;;9.60;6.22;;;26.70;99.90;;;;;;5065340;28;20507;-81
2023/06/17 10:48:30;;;;;;;7.75;6.00;;;26.70;99.90;;;;;;5064511;28;20104;-81
2023/06/17 10:51:08;;;;;;;9.82;6.70;;;26.90;99.90;;;;;;5065009;28;20041;-82
2023/06/17 10:53:40;;;;;;;8.65;6.32;;;27.00;99.90;;;;;;5065376;28;20062;-81
2023/06/17 10:56:09;;;;;;;11.98;6.82;;;27.00;99.90;;;;;;5096915;28;20048;-81
2023/06/17 10:58:36;;;;;;;8.43;5.40;;;26.90;98.80;;;;;;5061584;28;20083;-80
2023/06/17 11:01:04;;;;;;;10.52;5.85;;;27.00;99.50;;;;;;5100452;28;20406;-81
2023/06/17 11:03:30;;;;;;;9.75;6.22;;;27.20;99.90;;;;;;5065623;28;20033;-81
2023/06/17 11:06:00;;;;;;;10.38;6.55;;;27.30;99.60;;;;;;5064940;28;20071;-81
2023/06/17 11:08:30;;;;;;;10.32;6.28;;;27.50;99.50;;;;;;5096794;28;20082;-81
2023/06/17 11:11:12;;;;;;;12.88;5.90;;;27.40;99.30;;;;;;5067715;28;20127;-82
2023/06/17 11:13:40;;;;;;;16.27;6.50;;;27.40;99.40;;;;;;5068084;28;20040;-83
2023/06/17 11:16:06;;;;;;;8.13;6.65;;;27.40;99.40;;;;;;5099235;28;20082;-83
2023/06/17 11:18:45;;;;;;;10.35;5.68;;;27.50;99.30;;;;;;5068658;28;20040;-83
2023/06/17 11:21:11;;;;;;;9.07;6.25;;;27.60;98.50;;;;;;5065022;28;20643;-83
2023/06/17 11:23:38;;;;;;;9.85;5.53;;;27.60;98.10;;;;;;5066167;28;20036;-82
2023/06/17 11:26:05;;;;;;;11.90;5.80;;;27.50;97.70;;;;;;5067046;28;20037;-82
2023/06/17 11:28:31;;;;;;;7.93;5.35;;;27.50;98.70;;;;;;5068960;28;20044;-81
2023/06/17 11:30:57;;;;;;;7.50;5.10;;;27.60;99.30;;;;;;5065473;28;20115;-82
2023/06/17 11:33:23;;;;;;;13.75;5.03;;;27.80;98.60;;;;;;5048942;28;20040;-82
2023/06/17 11:35:52;;;;;;;7.20;5.07;;;27.80;98.40;;;;;;5068096;28;20040;-82
2023/06/17 11:38:18;;;;;;;8.32;5.30;;;27.90;98.40;;;;;;5097203;28;20049;-81
2023/06/17 11:40:44;;;;;;;6.43;4.82;;;28.10;98.20;;;;;;5068437;28;20506;-81
2023/06/17 11:43:10;;;;;;;7.15;4.45;;;28.20;97.10;;;;;;5070004;28;20041;-81
2023/06/17 11:45:37;;;;;;;6.15;4.45;;;28.10;97.40;;;;;;5067819;28;20129;-82
2023/06/17 11:48:05;;;;;;;6.57;4.88;;;28.20;97.10;;;;;;5068048;28;20088;-81
2023/06/17 11:50:31;;;;;;;8.05;5.35;;;28.20;97.30;;;;;;5098849;28;20051;-82
2023/06/17 11:52:56;;;;;;;9.25;5.40;;;28.00;96.90;;;;;;5070542;28;20111;-81
2023/06/17 11:55:30;;;;;;;7.63;5.18;;;27.70;96.80;;;;;;5065963;28;20124;-81
2023/06/17 11:57:56;;;;;;;7.68;5.00;;;27.50;96.50;;;;;;5069511;28;20441;-81
2023/06/17 12:00:22;;;;;;;6.88;4.60;;;27.50;97.20;;;;;;5071840;28;20028;-82
2023/06/17 12:02:48;;;;;;;7.68;4.22;;;27.50;97.30;;;;;;5073047;28;20029;-82
2023/06/17 12:05:13;;;;;;;5.63;4.30;;;27.60;96.60;;;;;;5068691;28;20033;-82
2023/06/17 12:07:39;;;;;;;8.80;4.50;;;27.80;97.00;;;;;;5067686;28;20041;-83
2023/06/17 12:10:06;;;;;;;8.73;4.57;;;27.80;96.30;;;;;;5070385;28;20044;-81
2023/06/17 12:12:34;;;;;;;6.30;4.68;;;28.10;96.50;;;;;;5071288;28;20028;-82
2023/06/17 12:15:07;;;;;;;9.40;4.05;;;28.10;96.20;;;;;;5067540;28;20174;-82
2023/06/17 12:17:44;;;;;;;6.50;4.25;;;28.30;96.30;;;;;;5098682;28;20434;-82
2023/06/17 12:20:17;;;;;;;6.03;4.55;;;28.40;95.90;;;;;;5063474;28;20104;-82
2023/06/17 12:22:44;;;;;;;5.15;3.95;;;28.50;94.90;;;;;;5067439;28;20037;-84
2023/06/17 12:25:11;;;;;;;8.02;4.30;;;28.30;94.10;;;;;;5061315;28;20045;-83
2023/06/17 12:27:39;;;;;;;4.40;4.00;;;28.30;94.20;;;;;;5060906;28;20521;-84
2023/06/17 12:30:06;;;;;;;5.40;3.65;;;28.30;94.80;;;;;;5065533;28;20045;-81
2023/06/17 12:32:31;;;;;;;5.60;4.50;;;28.30;94.60;;;;;;5066984;28;20047;-82